world map with ESDF marked

ESDF - Airport

This information may not be accurate or current and is not valid for navigation or flight planning. No warranty of fitness for any purpose is made or implied.

flag of Sweden

Donate via PayPal

Additional information is available on the NEW Great Circle Mapper

Location
City:  Ronneby, Blekinge län, Sweden
Name:Ronneby AB, F17
ICAO / IATA:ESDF / RNB

Details
Type:Airport (Aerodrome, Airfield)
Use:Public/Civil, Military
Latitude:56°16'00"N (56.266667)
Longitude:15°15'54"E (15.265000)
Datum:WGS 1984
Elevation:191 ft (58 m)
Runways:1
Longest:7648 × 148 ft (2331 × 45 m)

Time
Timezone:UTC+1 (DST+4)
Local Time:

Weather
METAR:ESDF  041350Z 18007KT 9999 SCT001 BKN007 01/01 Q1021
TAF:ESDF  (expired)

Related Locations
Nearby:
Farthest:CHT: 11428 mi / 18392 km
Waitangi [Tuuta], CIT, NZ

Find:

   beyond  
but within

Other Information
Maps:
Links:
Sources:

  


 


Great Circle Mapper   Great Circle Mapper
Great Circle Mapper FAQ   Great Circle Mapper FAQ
  Karl's Home Page
KLS²   KLS² Home
   GC on Facebook
Airlines of the World   Airlines of the World
Donate via PayPal


Copyright © 2004-2020, Karl L. Swartz. All rights reserved.
All trademarks mentioned herein belong to their respective owners.

Please see credits for attribution and copyright information.

Karl Swartz <karl@kls2.com>
  Powered by FreeBSD
Valid HTML 4.01!
Labeled with ICRA
hCard Microformat
Geo Microformat